createdAt,value
2018-04-29T00:01:10.105Z,13.06
2018-04-29T00:03:39.427Z,12.98
2018-04-29T00:06:08.721Z,12.92
2018-04-29T00:08:38.080Z,12.90
2018-04-29T00:11:07.387Z,12.90
2018-04-29T00:13:37.476Z,12.92
2018-04-29T00:16:06.798Z,12.89
2018-04-29T00:18:36.872Z,12.84
2018-04-29T00:21:06.208Z,12.75
2018-04-29T00:23:35.521Z,12.71
2018-04-29T00:26:04.862Z,12.66
2018-04-29T00:28:34.185Z,12.59
2018-04-29T00:31:03.514Z,12.48
2018-04-29T00:33:32.857Z,12.43
2018-04-29T00:36:02.915Z,12.35
2018-04-29T00:38:32.273Z,12.27
2018-04-29T00:41:01.569Z,12.21
2018-04-29T00:43:30.867Z,12.27
2018-04-29T00:46:00.975Z,12.33
2018-04-29T00:48:30.291Z,12.29
2018-04-29T00:51:00.413Z,12.18
2018-04-29T00:53:29.715Z,12.11
2018-04-29T00:55:59.783Z,12.05
2018-04-29T00:58:29.114Z,11.99
2018-04-29T01:00:58.451Z,11.94
2018-04-29T01:03:28.544Z,11.94
2018-04-29T01:05:57.924Z,11.92
2018-04-29T01:08:27.203Z,11.90
2018-04-29T01:10:56.507Z,11.91
2018-04-29T01:13:25.802Z,11.92
2018-04-29T01:15:55.145Z,11.82
2018-04-29T01:18:24.447Z,11.72
2018-04-29T01:20:53.790Z,11.65
2018-04-29T01:23:23.736Z,11.61
2018-04-29T01:25:53.035Z,11.58
2018-04-29T01:28:22.367Z,11.56
2018-04-29T01:30:51.671Z,11.56
2018-04-29T01:33:21.007Z,11.55
2018-04-29T01:35:51.127Z,11.56
2018-04-29T01:38:20.424Z,11.57
2018-04-29T01:40:49.734Z,11.49
2018-04-29T01:43:19.850Z,11.43
2018-04-29T01:45:49.133Z,11.41
2018-04-29T01:48:18.434Z,11.38
2018-04-29T01:50:47.779Z,11.33
2018-04-29T01:53:17.078Z,11.29
2018-04-29T01:55:47.183Z,11.25
2018-04-29T01:58:17.274Z,11.24
2018-04-29T02:00:46.591Z,11.22
2018-04-29T02:03:15.913Z,11.18
2018-04-29T02:05:45.994Z,11.17
2018-04-29T02:08:15.295Z,11.16
2018-04-29T02:10:44.635Z,11.13
2018-04-29T02:13:13.965Z,11.09
2018-04-29T02:15:43.277Z,11.05
2018-04-29T02:18:12.819Z,11.05
2018-04-29T02:20:42.157Z,11.03
2018-04-29T02:23:12.238Z,10.98
2018-04-29T02:25:41.560Z,10.94
2018-04-29T02:28:11.129Z,10.88
2018-04-29T02:30:40.465Z,10.82
2018-04-29T02:33:09.775Z,10.81
2018-04-29T02:35:39.089Z,10.78
2018-04-29T02:38:09.193Z,10.77
2018-04-29T02:40:38.516Z,10.81
2018-04-29T02:43:08.388Z,10.84
2018-04-29T02:45:38.399Z,10.82
2018-04-29T02:48:07.698Z,10.76
2018-04-29T02:50:37.026Z,10.73
2018-04-29T02:53:06.326Z,10.73
2018-04-29T02:55:35.645Z,10.72
2018-04-29T02:58:04.973Z,10.72
2018-04-29T03:00:35.044Z,10.68
2018-04-29T03:03:05.136Z,10.61
2018-04-29T03:05:34.431Z,10.56
2018-04-29T03:08:03.744Z,10.51
2018-04-29T03:10:33.071Z,10.45
2018-04-29T03:13:02.384Z,10.50
2018-04-29T03:15:31.683Z,10.54
2018-04-29T03:18:00.989Z,10.51
2018-04-29T03:20:30.318Z,10.52
2018-04-29T03:23:00.379Z,10.51
2018-04-29T03:25:29.679Z,10.50
2018-04-29T03:27:59.017Z,10.51
2018-04-29T03:30:28.307Z,10.56
2018-04-29T03:32:57.611Z,10.53
2018-04-29T03:35:26.937Z,10.51
2018-04-29T03:37:56.264Z,10.48
2018-04-29T03:40:26.326Z,10.44
2018-04-29T03:42:55.626Z,10.45
2018-04-29T03:45:24.944Z,10.40
2018-04-29T03:47:54.252Z,10.38
2018-04-29T03:50:23.563Z,10.37
2018-04-29T03:52:52.891Z,10.38
2018-04-29T03:55:22.959Z,10.52
2018-04-29T03:58:10.184Z,10.49
2018-04-29T04:00:57.342Z,10.39
2018-04-29T04:03:45.123Z,10.41
2018-04-29T04:06:14.513Z,10.43
2018-04-29T04:08:43.811Z,10.42
2018-04-29T04:11:13.126Z,10.45
2018-04-29T04:13:42.437Z,10.46
2018-04-29T04:16:11.744Z,10.48
2018-04-29T04:18:41.918Z,10.45
2018-04-29T04:21:11.239Z,10.49
2018-04-29T04:23:41.353Z,10.44
2018-04-29T04:26:10.623Z,10.49
2018-04-29T04:28:39.952Z,10.49
2018-04-29T04:31:10.075Z,10.50
2018-04-29T04:33:40.140Z,10.54
2018-04-29T04:36:09.797Z,10.54
2018-04-29T04:38:39.892Z,10.59
2018-04-29T04:41:09.195Z,10.64
2018-04-29T04:43:38.488Z,10.66
2018-04-29T04:46:07.824Z,10.65
2018-04-29T04:48:37.140Z,10.65
2018-04-29T04:51:07.216Z,10.64
2018-04-29T04:53:36.553Z,10.66
2018-04-29T04:56:06.679Z,10.69
2018-04-29T04:58:36.747Z,10.74
2018-04-29T05:01:06.094Z,10.77
2018-04-29T05:03:36.178Z,10.89
2018-04-29T05:06:05.518Z,11.00
2018-04-29T05:08:35.636Z,11.08
2018-04-29T05:11:04.943Z,11.18
2018-04-29T05:13:35.027Z,11.26
2018-04-29T05:16:04.383Z,11.33
2018-04-29T05:18:34.474Z,11.41
2018-04-29T05:21:03.809Z,11.38
2018-04-29T05:23:33.136Z,11.31
2018-04-29T05:26:02.435Z,11.21
2018-04-29T05:28:31.765Z,11.24
2018-04-29T05:31:01.067Z,11.22
2018-04-29T05:33:30.385Z,11.16
2018-04-29T05:35:59.713Z,11.24
2018-04-29T05:38:29.798Z,11.25
2018-04-29T05:40:59.116Z,11.34
2018-04-29T05:43:28.419Z,11.45
2018-04-29T05:45:57.967Z,11.59
2018-04-29T05:48:27.853Z,11.74
2018-04-29T05:50:57.914Z,11.87
2018-04-29T05:53:27.253Z,11.93
2018-04-29T05:55:56.577Z,11.99
2018-04-29T05:58:26.653Z,12.06
2018-04-29T06:00:55.966Z,12.14
2018-04-29T06:03:25.267Z,12.26
2018-04-29T06:05:54.588Z,12.35
2018-04-29T06:08:23.911Z,12.50
2018-04-29T06:10:54.025Z,12.62
2018-04-29T06:13:23.348Z,12.75
2018-04-29T06:15:52.656Z,12.88
2018-04-29T06:18:21.978Z,13.00
2018-04-29T06:20:52.154Z,13.07
2018-04-29T06:23:22.243Z,13.08
2018-04-29T06:25:51.544Z,13.12
2018-04-29T06:28:20.859Z,13.10
2018-04-29T06:30:50.197Z,13.15
2018-04-29T06:33:20.288Z,13.14
2018-04-29T06:35:49.577Z,13.23
2018-04-29T06:38:18.903Z,13.38
2018-04-29T06:40:48.975Z,13.53
2018-04-29T06:43:18.561Z,13.59
2018-04-29T06:45:47.877Z,13.64
2018-04-29T06:48:17.203Z,13.71
2018-04-29T06:50:46.521Z,13.80
2018-04-29T06:53:15.863Z,13.87
2018-04-29T06:55:45.946Z,13.88
2018-04-29T06:58:15.291Z,13.91
2018-04-29T07:00:45.411Z,13.99
2018-04-29T07:03:14.711Z,14.08
2018-04-29T07:05:44.811Z,14.19
2018-04-29T07:08:14.227Z,14.29
2018-04-29T07:10:43.699Z,14.29
2018-04-29T07:13:14.325Z,14.30
2018-04-29T07:15:43.634Z,14.26
2018-04-29T07:18:12.976Z,14.36
2018-04-29T07:20:43.071Z,14.37
2018-04-29T07:23:12.369Z,14.33
2018-04-29T07:25:41.690Z,14.19
2018-04-29T07:28:11.773Z,14.08
2018-04-29T07:30:41.082Z,14.05
2018-04-29T07:33:10.412Z,13.96
2018-04-29T07:35:40.506Z,13.87
2018-04-29T07:38:09.774Z,13.87
2018-04-29T07:40:39.110Z,13.90
2018-04-29T07:43:08.417Z,13.91
2018-04-29T07:45:37.713Z,13.94
2018-04-29T07:48:07.032Z,14.02
2018-04-29T07:50:36.342Z,14.00
2018-04-29T07:53:06.461Z,13.81
2018-04-29T07:55:35.826Z,13.86
2018-04-29T07:58:05.131Z,13.88
2018-04-29T08:00:34.437Z,14.02
2018-04-29T08:03:03.777Z,14.28
2018-04-29T08:05:33.862Z,14.57
2018-04-29T08:08:03.187Z,14.84
2018-04-29T08:10:32.480Z,15.12
2018-04-29T08:13:01.787Z,15.49
2018-04-29T08:15:31.183Z,15.84
2018-04-29T08:18:00.441Z,16.05
2018-04-29T08:20:29.752Z,16.44
2018-04-29T08:22:59.090Z,16.92
2018-04-29T08:25:28.382Z,17.12
2018-04-29T08:27:57.921Z,16.98
2018-04-29T08:30:27.415Z,16.79
2018-04-29T08:32:56.720Z,16.66
2018-04-29T08:35:26.038Z,16.51
2018-04-29T08:37:56.107Z,16.23
2018-04-29T08:40:26.587Z,16.10
2018-04-29T08:42:56.701Z,16.11
2018-04-29T08:45:25.998Z,16.18
2018-04-29T08:47:55.323Z,16.13
2018-04-29T08:50:24.650Z,16.15
2018-04-29T08:52:54.139Z,16.06
2018-04-29T08:55:23.469Z,15.83
2018-04-29T08:57:52.772Z,15.66
2018-04-29T09:00:22.076Z,15.56
2018-04-29T09:02:51.417Z,15.43
2018-04-29T09:05:20.736Z,15.38
2018-04-29T09:07:50.799Z,15.30
2018-04-29T09:10:20.184Z,15.23
2018-04-29T09:12:49.435Z,15.30
2018-04-29T09:15:18.756Z,15.35
2018-04-29T09:17:48.856Z,15.54
2018-04-29T09:20:18.150Z,15.72
2018-04-29T09:22:47.476Z,15.80
2018-04-29T09:25:17.556Z,15.94
2018-04-29T09:27:46.890Z,16.11
2018-04-29T09:30:16.262Z,16.35
2018-04-29T09:32:45.583Z,16.53
2018-04-29T09:35:14.870Z,16.66
2018-04-29T09:37:44.404Z,16.76
2018-04-29T09:40:13.706Z,16.94
2018-04-29T09:42:43.001Z,17.07
2018-04-29T09:45:12.329Z,17.22
2018-04-29T09:47:42.424Z,17.34
2018-04-29T09:50:11.743Z,17.43
2018-04-29T09:52:41.830Z,17.59
2018-04-29T09:55:11.150Z,17.67
2018-04-29T09:57:40.468Z,17.64
2018-04-29T10:00:10.561Z,18.03
2018-04-29T10:02:45.536Z,18.82
2018-04-29T10:05:15.864Z,19.81
2018-04-29T10:07:45.439Z,20.16
2018-04-29T10:10:14.742Z,20.90
2018-04-29T10:12:44.061Z,21.52
2018-04-29T10:15:13.363Z,22.13
2018-04-29T10:17:43.638Z,22.50
2018-04-29T10:20:12.966Z,22.44
2018-04-29T10:22:42.306Z,22.53
2018-04-29T10:25:12.386Z,22.76
2018-04-29T10:27:41.729Z,22.51
2018-04-29T10:30:11.788Z,22.65
2018-04-29T10:32:41.178Z,22.87
2018-04-29T10:35:10.463Z,23.45
2018-04-29T10:37:39.788Z,23.50
2018-04-29T10:40:09.088Z,23.48
2018-04-29T10:42:38.413Z,23.05
2018-04-29T10:45:07.728Z,22.96
2018-04-29T10:47:37.082Z,22.79
2018-04-29T10:50:06.430Z,22.93
2018-04-29T10:52:35.804Z,23.67
2018-04-29T10:55:05.846Z,24.13
2018-04-29T10:57:35.193Z,24.35
2018-04-29T11:00:05.270Z,24.74
2018-04-29T11:02:34.598Z,24.88
2018-04-29T11:05:03.959Z,24.82
2018-04-29T11:07:33.309Z,24.14
2018-04-29T11:10:02.603Z,23.91
2018-04-29T11:12:31.898Z,23.47
2018-04-29T11:15:01.242Z,23.33
2018-04-29T11:17:30.566Z,23.38
2018-04-29T11:19:59.876Z,23.57
2018-04-29T11:22:29.383Z,23.92
2018-04-29T11:24:58.680Z,24.25
2018-04-29T11:27:27.978Z,24.28
2018-04-29T11:29:58.483Z,24.14
2018-04-29T11:32:28.834Z,24.29
2018-04-29T11:34:58.157Z,24.22
2018-04-29T11:37:27.470Z,24.23
2018-04-29T11:39:56.756Z,23.86
2018-04-29T11:42:26.333Z,23.03
2018-04-29T11:44:55.676Z,22.55
2018-04-29T11:47:25.011Z,22.49
2018-04-29T11:49:55.121Z,22.77
2018-04-29T11:52:24.422Z,23.52
2018-04-29T11:54:53.729Z,23.89
2018-04-29T11:57:23.052Z,23.98
2018-04-29T11:59:53.138Z,23.58
2018-04-29T12:02:22.467Z,23.15
2018-04-29T12:04:52.542Z,22.79
2018-04-29T12:07:25.849Z,22.50
2018-04-29T12:09:55.216Z,22.49
2018-04-29T12:12:24.475Z,22.34
2018-04-29T12:14:53.807Z,22.28
2018-04-29T12:17:23.108Z,22.51
2018-04-29T12:19:52.412Z,22.53
2018-04-29T12:22:21.731Z,22.63
2018-04-29T12:24:51.043Z,22.77
2018-04-29T12:27:20.359Z,22.76
2018-04-29T12:29:49.684Z,23.22
2018-04-29T12:32:18.983Z,23.95
2018-04-29T12:34:48.292Z,24.15
2018-04-29T12:37:17.610Z,24.24
2018-04-29T12:39:47.682Z,24.61
2018-04-29T12:42:17.000Z,24.94
2018-04-29T12:44:46.327Z,24.89
2018-04-29T12:47:16.404Z,25.27
2018-04-29T12:49:45.705Z,25.47
2018-04-29T12:52:15.105Z,25.39
2018-04-29T12:54:44.363Z,25.16
2018-04-29T12:57:14.495Z,24.95
2018-04-29T12:59:43.828Z,24.74
2018-04-29T13:02:13.171Z,24.60
2018-04-29T13:04:42.499Z,24.44
2018-04-29T13:07:11.850Z,24.18
2018-04-29T13:09:41.930Z,24.18
2018-04-29T13:12:11.287Z,24.35
2018-04-29T13:14:40.580Z,24.32
2018-04-29T13:17:09.887Z,24.31
2018-04-29T13:19:39.208Z,24.08
2018-04-29T13:22:08.530Z,24.05
2018-04-29T13:24:38.633Z,24.23
2018-04-29T13:27:07.927Z,24.56
2018-04-29T13:29:37.263Z,24.82
2018-04-29T13:32:07.328Z,24.91
2018-04-29T13:34:36.719Z,25.20
2018-04-29T13:37:07.011Z,25.53
2018-04-29T13:39:36.306Z,26.09
2018-04-29T13:42:05.614Z,26.41
2018-04-29T13:44:34.931Z,26.43
2018-04-29T13:47:04.249Z,26.61
2018-04-29T13:49:33.579Z,26.97
2018-04-29T13:52:02.950Z,27.18
2018-04-29T13:54:32.279Z,27.54
2018-04-29T13:57:01.624Z,27.90
2018-04-29T13:59:31.701Z,27.88
2018-04-29T14:02:01.010Z,27.75
2018-04-29T14:04:30.385Z,27.68
2018-04-29T14:06:59.709Z,27.98
2018-04-29T14:09:29.060Z,27.91
2018-04-29T14:11:59.189Z,27.62
2018-04-29T14:14:28.495Z,27.42
2018-04-29T14:16:57.813Z,27.53
2018-04-29T14:19:27.144Z,27.88
2018-04-29T14:21:57.169Z,27.66
2018-04-29T14:24:26.564Z,27.05
2018-04-29T14:26:56.464Z,26.42
2018-04-29T14:29:25.787Z,26.22
2018-04-29T14:31:55.113Z,25.99
2018-04-29T14:34:25.239Z,25.70
2018-04-29T14:36:55.350Z,25.61
2018-04-29T14:39:24.665Z,25.06
2018-04-29T14:41:54.779Z,24.41
2018-04-29T14:44:24.099Z,24.19
2018-04-29T14:46:54.502Z,24.05
2018-04-29T14:49:23.861Z,24.09
2018-04-29T14:51:53.145Z,24.08
2018-04-29T14:54:22.451Z,24.03
2018-04-29T14:56:51.778Z,23.84
2018-04-29T14:59:21.083Z,23.73
2018-04-29T15:01:50.403Z,23.54
2018-04-29T15:04:19.749Z,23.23
2018-04-29T15:06:49.046Z,23.07
2018-04-29T15:09:18.386Z,22.94
2018-04-29T15:11:47.709Z,22.85
2018-04-29T15:14:17.011Z,22.64
2018-04-29T15:16:46.311Z,22.71
2018-04-29T15:19:15.838Z,22.58
2018-04-29T15:21:45.931Z,22.46
2018-04-29T15:24:15.239Z,22.37
2018-04-29T15:26:44.537Z,22.30
2018-04-29T15:29:13.863Z,22.15
2018-04-29T15:31:43.951Z,21.97
2018-04-29T15:34:13.283Z,21.96
2018-04-29T15:36:42.591Z,21.98
2018-04-29T15:39:12.674Z,21.91
2018-04-29T15:41:42.014Z,21.86
2018-04-29T15:44:11.325Z,21.76
2018-04-29T15:46:41.339Z,21.79
2018-04-29T15:49:11.448Z,21.68
2018-04-29T15:51:40.779Z,21.70
2018-04-29T15:54:10.107Z,21.74
2018-04-29T15:56:39.435Z,21.76
2018-04-29T15:59:08.759Z,21.62
2018-04-29T16:01:38.087Z,21.73
2018-04-29T16:04:08.155Z,21.76
2018-04-29T16:06:37.482Z,21.78
2018-04-29T16:09:06.793Z,21.68
2018-04-29T16:11:36.870Z,21.70
2018-04-29T16:14:06.186Z,21.71
2018-04-29T16:16:35.475Z,21.59
2018-04-29T16:19:04.799Z,21.55
2018-04-29T16:21:34.129Z,21.46
2018-04-29T16:24:04.196Z,21.52
2018-04-29T16:26:33.480Z,21.37
2018-04-29T16:29:02.841Z,21.45
2018-04-29T16:31:32.156Z,21.41
2018-04-29T16:34:02.233Z,21.50
2018-04-29T16:36:31.564Z,21.44
2018-04-29T16:39:00.882Z,21.51
2018-04-29T16:41:30.983Z,21.64
2018-04-29T16:44:00.285Z,21.64
2018-04-29T16:46:29.609Z,21.62
2018-04-29T16:48:59.676Z,21.73
2018-04-29T16:51:28.975Z,21.73
2018-04-29T16:53:58.302Z,21.78
2018-04-29T16:56:27.622Z,21.87
2018-04-29T16:58:56.932Z,21.92
2018-04-29T17:01:27.016Z,21.95
2018-04-29T17:03:56.319Z,21.96
2018-04-29T17:06:25.623Z,21.96
2018-04-29T17:08:54.950Z,21.94
2018-04-29T17:11:24.255Z,21.91
2018-04-29T17:13:54.348Z,21.89
2018-04-29T17:16:23.685Z,21.88
2018-04-29T17:18:53.763Z,21.85
2018-04-29T17:21:23.066Z,21.83
2018-04-29T17:23:52.418Z,21.83
2018-04-29T17:26:22.499Z,21.84
2018-04-29T17:28:51.833Z,21.82
2018-04-29T17:31:21.977Z,21.78
2018-04-29T17:33:51.278Z,21.73
2018-04-29T17:36:20.603Z,21.65
2018-04-29T17:38:49.910Z,21.58
2018-04-29T17:41:19.233Z,21.48
2018-04-29T17:43:48.531Z,21.37
2018-04-29T17:46:17.839Z,21.30
2018-04-29T17:48:47.171Z,21.26
2018-04-29T17:51:17.261Z,21.20
2018-04-29T17:53:46.548Z,21.15
2018-04-29T17:56:15.879Z,21.06
2018-04-29T17:58:45.322Z,20.96
2018-04-29T18:01:14.634Z,20.87
2018-04-29T18:03:44.008Z,20.79
2018-04-29T18:06:14.113Z,20.72
2018-04-29T18:08:43.429Z,20.65
2018-04-29T18:11:13.524Z,20.59
2018-04-29T18:13:42.843Z,20.53
2018-04-29T18:16:12.163Z,20.47
2018-04-29T18:18:42.335Z,20.40
2018-04-29T18:21:11.631Z,20.27
2018-04-29T18:23:40.949Z,20.18
2018-04-29T18:26:10.386Z,20.14
2018-04-29T18:28:40.474Z,20.06
2018-04-29T18:31:09.774Z,19.93
2018-04-29T18:33:39.120Z,19.92
2018-04-29T18:36:09.200Z,19.85
2018-04-29T18:38:38.539Z,19.76
2018-04-29T18:41:08.619Z,19.65
2018-04-29T18:43:37.927Z,19.59
2018-04-29T18:46:07.264Z,19.56
2018-04-29T18:48:37.476Z,19.48
2018-04-29T18:51:06.907Z,19.45
2018-04-29T18:53:36.907Z,19.39
2018-04-29T18:56:06.979Z,19.34
2018-04-29T18:58:36.316Z,19.31
2018-04-29T19:01:05.659Z,19.22
2018-04-29T19:03:34.971Z,19.16
2018-04-29T19:06:04.305Z,19.14
2018-04-29T19:08:33.627Z,19.12
2018-04-29T19:11:02.937Z,19.09
2018-04-29T19:13:33.028Z,19.07
2018-04-29T19:16:02.331Z,19.02
2018-04-29T19:18:31.637Z,19.03
2018-04-29T19:21:00.971Z,19.01
2018-04-29T19:23:31.057Z,19.05
2018-04-29T19:26:00.397Z,18.98
2018-04-29T19:28:30.532Z,18.97
2018-04-29T19:30:59.918Z,18.95
2018-04-29T19:33:30.006Z,18.91
2018-04-29T19:35:59.331Z,18.86
2018-04-29T19:38:29.522Z,18.87
2018-04-29T19:40:59.126Z,18.89
2018-04-29T19:43:28.446Z,18.89
2018-04-29T19:45:57.750Z,18.83
2018-04-29T19:48:27.077Z,18.85
2018-04-29T19:50:57.154Z,18.79
2018-04-29T19:53:26.467Z,18.73
2018-04-29T19:55:55.803Z,18.73
2018-04-29T19:58:25.904Z,18.72
2018-04-29T20:00:55.209Z,18.72
2018-04-29T20:03:24.545Z,18.66
2018-04-29T20:05:53.881Z,18.73
2018-04-29T20:08:23.202Z,18.63
2018-04-29T20:10:52.534Z,18.58
2018-04-29T20:13:22.620Z,18.61
2018-04-29T20:15:51.958Z,18.55
2018-04-29T20:18:22.101Z,18.56
2018-04-29T20:20:51.415Z,18.53
2018-04-29T20:23:20.734Z,18.46
2018-04-29T20:25:50.071Z,18.43
2018-04-29T20:28:19.398Z,18.45
2018-04-29T20:30:49.498Z,18.42
2018-04-29T20:33:18.786Z,18.40
2018-04-29T20:35:48.097Z,18.36
2018-04-29T20:38:17.433Z,18.33
2018-04-29T20:40:46.735Z,18.38
2018-04-29T20:43:16.035Z,18.39
2018-04-29T20:45:45.361Z,18.29
2018-04-29T20:48:14.658Z,18.25
2018-04-29T20:50:43.958Z,18.29
2018-04-29T20:53:13.332Z,18.30
2018-04-29T20:55:43.402Z,18.30
2018-04-29T20:58:12.692Z,18.33
2018-04-29T21:00:42.122Z,18.29
2018-04-29T21:03:12.172Z,18.29
2018-04-29T21:05:42.296Z,18.26
2018-04-29T21:08:12.367Z,18.24
2018-04-29T21:10:41.767Z,18.25
2018-04-29T21:13:11.100Z,18.29
2018-04-29T21:15:40.420Z,18.31
2018-04-29T21:18:09.753Z,18.27
2018-04-29T21:20:39.071Z,18.22
2018-04-29T21:23:08.418Z,18.21
2018-04-29T21:25:37.734Z,18.16
2018-04-29T21:28:07.143Z,18.15
2018-04-29T21:30:37.234Z,18.08
2018-04-29T21:33:06.865Z,18.15
2018-04-29T21:35:36.965Z,18.15
2018-04-29T21:38:06.287Z,18.10
2018-04-29T21:40:35.609Z,18.10
2018-04-29T21:43:05.686Z,18.09
2018-04-29T21:45:34.986Z,18.07
2018-04-29T21:48:04.314Z,18.09
2018-04-29T21:50:34.406Z,18.06
2018-04-29T21:53:03.728Z,17.97
2018-04-29T21:55:33.072Z,18.02
2018-04-29T21:58:02.414Z,17.99
2018-04-29T22:00:31.783Z,17.97
2018-04-29T22:03:01.136Z,17.96
2018-04-29T22:05:30.559Z,17.91
2018-04-29T22:07:59.885Z,17.94
2018-04-29T22:10:29.183Z,17.87
2018-04-29T22:13:03.358Z,17.90
2018-04-29T22:15:33.526Z,17.84
2018-04-29T22:18:02.849Z,17.85
2018-04-29T22:20:32.171Z,17.79
2018-04-29T22:23:01.496Z,17.79
2018-04-29T22:25:30.847Z,17.73
2018-04-29T22:28:00.845Z,17.75
2018-04-29T22:30:30.954Z,17.74
2018-04-29T22:33:01.047Z,17.70
2018-04-29T22:35:30.383Z,17.63
2018-04-29T22:38:00.441Z,17.61
2018-04-29T22:40:29.750Z,17.62
2018-04-29T22:42:59.078Z,17.71
2018-04-29T22:45:28.408Z,17.68
2018-04-29T22:47:58.468Z,17.65
2018-04-29T22:50:27.805Z,17.63
2018-04-29T22:52:57.119Z,17.61
2018-04-29T22:55:27.186Z,17.60
2018-04-29T22:57:56.514Z,17.57
2018-04-29T23:00:25.810Z,17.58
2018-04-29T23:02:55.146Z,17.57
2018-04-29T23:05:25.211Z,17.57
2018-04-29T23:07:54.511Z,17.52
2018-04-29T23:10:23.849Z,17.46
2018-04-29T23:12:53.143Z,17.38
2018-04-29T23:15:22.446Z,17.37
2018-04-29T23:17:51.797Z,17.45
2018-04-29T23:20:21.880Z,17.39
2018-04-29T23:22:51.200Z,17.37
2018-04-29T23:25:20.511Z,17.39
2018-04-29T23:27:50.628Z,17.42
2018-04-29T23:30:19.923Z,17.37
2018-04-29T23:32:49.221Z,17.32
2018-04-29T23:35:18.553Z,17.28
2018-04-29T23:37:47.856Z,17.24
2018-04-29T23:40:17.159Z,17.27
2018-04-29T23:42:46.475Z,17.10
2018-04-29T23:45:15.808Z,16.98
2018-04-29T23:47:45.122Z,16.96
2018-04-29T23:50:14.423Z,16.90
2018-04-29T23:52:43.769Z,16.91
2018-04-29T23:55:13.097Z,16.79
2018-04-29T23:57:42.436Z,16.70
